createdAt,value
2023-03-12T00:00:51.789Z,6.49
2023-03-12T00:01:51.772Z,6.45
2023-03-12T00:02:51.868Z,6.46
2023-03-12T00:03:51.826Z,6.46
2023-03-12T00:04:51.740Z,6.46
2023-03-12T00:05:51.720Z,6.46
2023-03-12T00:06:51.706Z,6.46
2023-03-12T00:07:51.698Z,6.46
2023-03-12T00:08:51.689Z,6.46
2023-03-12T00:09:51.665Z,6.46
2023-03-12T00:10:51.652Z,6.45
2023-03-12T00:11:51.637Z,6.45
2023-03-12T00:12:51.630Z,6.45
2023-03-12T00:13:51.608Z,6.43
2023-03-12T00:14:51.599Z,6.45
2023-03-12T00:15:51.590Z,6.45
2023-03-12T00:16:51.572Z,6.43
2023-03-12T00:17:51.554Z,6.45
2023-03-12T00:18:51.567Z,6.45
2023-03-12T00:19:51.531Z,6.45
2023-03-12T00:20:51.521Z,6.43
2023-03-12T00:21:51.501Z,6.45
2023-03-12T00:22:51.492Z,6.43
2023-03-12T00:23:51.525Z,6.45
2023-03-12T00:24:51.464Z,6.43
2023-03-12T00:25:51.447Z,6.43
2023-03-12T00:26:51.445Z,6.43
2023-03-12T00:27:51.422Z,6.42
2023-03-12T00:28:51.408Z,6.42
2023-03-12T00:29:51.394Z,6.42
2023-03-12T00:30:51.383Z,6.42
2023-03-12T00:31:51.407Z,6.42
2023-03-12T00:32:51.408Z,6.42
2023-03-12T00:33:51.348Z,6.42
2023-03-12T00:34:51.356Z,6.42
2023-03-12T00:35:51.387Z,6.42
2023-03-12T00:36:51.295Z,6.42
2023-03-12T00:37:51.290Z,6.42
2023-03-12T00:38:51.267Z,6.42
2023-03-12T00:39:51.254Z,6.40
2023-03-12T00:40:51.243Z,6.42
2023-03-12T00:41:51.227Z,6.40
2023-03-12T00:42:51.213Z,6.42
2023-03-12T00:43:51.209Z,6.42
2023-03-12T00:44:51.184Z,6.40
2023-03-12T00:45:51.167Z,6.40
2023-03-12T00:46:51.225Z,6.40
2023-03-12T00:47:51.140Z,6.40
2023-03-12T00:48:51.175Z,6.42
2023-03-12T00:49:51.117Z,6.40
2023-03-12T00:50:51.146Z,6.40
2023-03-12T00:51:51.098Z,6.43
2023-03-12T00:52:51.075Z,6.45
2023-03-12T00:53:51.060Z,6.42
2023-03-12T00:54:51.044Z,6.43
2023-03-12T00:55:51.032Z,6.43
2023-03-12T00:56:51.017Z,6.42
2023-03-12T00:57:51.012Z,6.40
2023-03-12T00:58:50.993Z,6.42
2023-03-12T00:59:50.977Z,6.42
2023-03-12T01:00:51.037Z,6.42
2023-03-12T01:01:50.950Z,6.40
2023-03-12T01:02:52.440Z,6.40
2023-03-12T01:03:50.964Z,6.40
2023-03-12T01:04:50.914Z,6.40
2023-03-12T01:05:50.903Z,6.40
2023-03-12T01:06:50.906Z,6.40
2023-03-12T01:07:50.875Z,6.43
2023-03-12T01:08:50.859Z,6.40
2023-03-12T01:09:50.846Z,6.40
2023-03-12T01:10:50.834Z,6.39
2023-03-12T01:11:50.819Z,6.40
2023-03-12T01:12:50.802Z,6.37
2023-03-12T01:13:50.793Z,6.39
2023-03-12T01:14:50.782Z,6.37
2023-03-12T01:15:50.768Z,6.39
2023-03-12T01:16:52.464Z,6.39
2023-03-12T01:17:50.765Z,6.37
2023-03-12T01:18:50.728Z,6.39
2023-03-12T01:19:50.715Z,6.39
2023-03-12T01:20:50.706Z,6.37
2023-03-12T01:21:50.686Z,6.39
2023-03-12T01:22:50.727Z,6.39
2023-03-12T01:23:50.659Z,6.39
2023-03-12T01:24:50.644Z,6.37
2023-03-12T01:25:50.632Z,6.39
2023-03-12T01:26:50.620Z,6.37
2023-03-12T01:27:50.608Z,6.37
2023-03-12T01:28:50.594Z,6.37
2023-03-12T01:29:50.579Z,6.35
2023-03-12T01:30:50.567Z,6.34
2023-03-12T01:31:50.607Z,6.35
2023-03-12T01:32:50.605Z,6.34
2023-03-12T01:33:50.523Z,6.35
2023-03-12T01:34:50.510Z,6.37
2023-03-12T01:35:50.714Z,6.35
2023-03-12T01:36:50.480Z,6.35
2023-03-12T01:37:50.482Z,6.35
2023-03-12T01:38:50.484Z,6.35
2023-03-12T01:39:50.441Z,6.35
2023-03-12T01:40:50.463Z,6.35
2023-03-12T01:41:50.430Z,6.37
2023-03-12T01:42:50.402Z,6.37
2023-03-12T01:43:50.391Z,6.34
2023-03-12T01:44:50.382Z,6.34
2023-03-12T01:45:50.433Z,6.35
2023-03-12T01:46:50.351Z,6.34
2023-03-12T01:47:50.333Z,6.35
2023-03-12T01:48:50.319Z,6.37
2023-03-12T01:49:50.307Z,6.37
2023-03-12T01:50:50.295Z,6.37
2023-03-12T01:51:50.281Z,6.35
2023-03-12T01:52:50.264Z,6.34
2023-03-12T01:53:50.251Z,6.34
2023-03-12T01:54:50.264Z,6.32
2023-03-12T01:55:50.223Z,6.31
2023-03-12T01:56:50.216Z,6.32
2023-03-12T01:57:50.195Z,6.31
2023-03-12T01:58:50.181Z,6.31
2023-03-12T01:59:50.171Z,6.29
2023-03-12T02:00:50.180Z,6.31
2023-03-12T02:01:50.146Z,6.31
2023-03-12T02:02:50.125Z,6.29
2023-03-12T02:03:50.131Z,6.31
2023-03-12T02:04:50.097Z,6.31
2023-03-12T02:05:50.086Z,6.31
2023-03-12T02:06:50.080Z,6.32
2023-03-12T02:07:50.057Z,6.32
2023-03-12T02:08:50.043Z,6.34
2023-03-12T02:09:50.033Z,6.32
2023-03-12T02:10:50.046Z,6.32
2023-03-12T02:11:50.005Z,6.31
2023-03-12T02:12:49.996Z,6.31
2023-03-12T02:13:49.993Z,6.31
2023-03-12T02:14:49.972Z,6.31
2023-03-12T02:15:49.956Z,6.31
2023-03-12T02:16:50.078Z,6.32
2023-03-12T02:17:49.966Z,6.34
2023-03-12T02:18:49.910Z,6.31
2023-03-12T02:19:49.903Z,6.32
2023-03-12T02:20:49.897Z,6.29
2023-03-12T02:21:49.872Z,6.31
2023-03-12T02:22:49.860Z,6.29
2023-03-12T02:23:49.845Z,6.29
2023-03-12T02:24:49.832Z,6.32
2023-03-12T02:25:49.841Z,6.32
2023-03-12T02:26:49.854Z,6.34
2023-03-12T02:27:49.793Z,6.31
2023-03-12T02:28:49.783Z,6.32
2023-03-12T02:29:49.772Z,6.29
2023-03-12T02:30:49.755Z,6.29
2023-03-12T02:31:49.772Z,6.29
2023-03-12T02:32:49.747Z,6.29
2023-03-12T02:33:49.717Z,6.29
2023-03-12T02:34:49.694Z,6.29
2023-03-12T02:35:49.684Z,6.29
2023-03-12T02:36:49.673Z,6.29
2023-03-12T02:37:49.663Z,6.31
2023-03-12T02:38:49.647Z,6.29
2023-03-12T02:39:49.629Z,6.32
2023-03-12T02:40:49.623Z,6.31
2023-03-12T02:41:49.601Z,6.32
2023-03-12T02:42:49.613Z,6.32
2023-03-12T02:43:49.579Z,6.32
2023-03-12T02:44:49.559Z,6.31
2023-03-12T02:45:49.591Z,6.32
2023-03-12T02:46:49.531Z,6.31
2023-03-12T02:47:49.526Z,6.29
2023-03-12T02:48:49.507Z,6.29
2023-03-12T02:49:49.496Z,6.28
2023-03-12T02:50:49.477Z,6.27
2023-03-12T02:51:49.467Z,6.27
2023-03-12T02:52:49.455Z,6.25
2023-03-12T02:53:49.442Z,6.24
2023-03-12T02:54:49.423Z,6.29
2023-03-12T02:55:49.412Z,6.31
2023-03-12T02:56:49.401Z,6.29
2023-03-12T02:57:49.392Z,6.29
2023-03-12T02:58:49.394Z,6.29
2023-03-12T02:59:49.360Z,6.29
2023-03-12T03:00:49.353Z,6.28
2023-03-12T03:01:49.333Z,6.27
2023-03-12T03:02:49.320Z,6.27
2023-03-12T03:03:49.368Z,6.25
2023-03-12T03:04:49.293Z,6.27
2023-03-12T03:05:49.278Z,6.27
2023-03-12T03:06:49.268Z,6.25
2023-03-12T03:07:49.254Z,6.27
2023-03-12T03:08:49.244Z,6.25
2023-03-12T03:09:49.227Z,6.27
2023-03-12T03:10:49.213Z,6.25
2023-03-12T03:11:49.199Z,6.27
2023-03-12T03:12:49.184Z,6.28
2023-03-12T03:13:49.178Z,6.27
2023-03-12T03:14:49.236Z,6.27
2023-03-12T03:15:49.213Z,6.28
2023-03-12T03:16:49.134Z,6.28
2023-03-12T03:17:49.121Z,6.28
2023-03-12T03:18:49.107Z,6.28
2023-03-12T03:19:49.093Z,6.28
2023-03-12T03:20:49.103Z,6.28
2023-03-12T03:21:49.072Z,6.29
2023-03-12T03:22:49.051Z,6.29
2023-03-12T03:23:49.041Z,6.29
2023-03-12T03:24:49.054Z,6.28
2023-03-12T03:25:49.013Z,6.27
2023-03-12T03:26:49.029Z,6.28
2023-03-12T03:27:48.987Z,6.28
2023-03-12T03:28:48.974Z,6.29
2023-03-12T03:29:50.256Z,6.31
2023-03-12T03:30:49.022Z,6.29
2023-03-12T03:31:48.934Z,6.28
2023-03-12T03:32:48.956Z,6.28
2023-03-12T03:33:48.907Z,6.27
2023-03-12T03:34:48.904Z,6.27
2023-03-12T03:35:48.915Z,6.27
2023-03-12T03:36:48.868Z,6.27
2023-03-12T03:37:48.852Z,6.28
2023-03-12T03:38:48.849Z,6.28
2023-03-12T03:39:48.827Z,6.28
2023-03-12T03:40:48.821Z,6.28
2023-03-12T03:41:48.801Z,6.29
2023-03-12T03:42:48.791Z,6.29
2023-03-12T03:43:48.777Z,6.29
2023-03-12T03:44:48.774Z,6.28
2023-03-12T03:45:48.835Z,6.28
2023-03-12T03:46:48.762Z,6.28
2023-03-12T03:47:48.728Z,6.27
2023-03-12T03:48:48.711Z,6.27
2023-03-12T03:49:48.695Z,6.27
2023-03-12T03:50:48.686Z,6.27
2023-03-12T03:51:48.670Z,6.27
2023-03-12T03:52:48.663Z,6.27
2023-03-12T03:53:48.644Z,6.25
2023-03-12T03:54:48.633Z,6.27
2023-03-12T03:55:48.620Z,6.22
2023-03-12T03:56:48.615Z,6.24
2023-03-12T03:57:48.599Z,6.24
2023-03-12T03:58:48.619Z,6.24
2023-03-12T03:59:48.568Z,6.24
2023-03-12T04:00:48.567Z,6.25
2023-03-12T04:01:48.558Z,6.22
2023-03-12T04:02:48.552Z,6.22
2023-03-12T04:03:48.513Z,6.24
2023-03-12T04:04:48.501Z,6.24
2023-03-12T04:05:48.528Z,6.22
2023-03-12T04:06:48.476Z,6.25
2023-03-12T04:07:48.460Z,6.24
2023-03-12T04:08:48.460Z,6.27
2023-03-12T04:09:48.432Z,6.24
2023-03-12T04:10:48.423Z,6.25
2023-03-12T04:11:48.405Z,6.27
2023-03-12T04:12:48.393Z,6.27
2023-03-12T04:13:48.399Z,6.27
2023-03-12T04:14:48.373Z,6.27
2023-03-12T04:15:48.373Z,6.25
2023-03-12T04:16:48.344Z,6.24
2023-03-12T04:17:48.374Z,6.24
2023-03-12T04:18:48.367Z,6.25
2023-03-12T04:19:48.308Z,6.28
2023-03-12T04:20:48.295Z,6.27
2023-03-12T04:21:48.301Z,6.27
2023-03-12T04:22:48.270Z,6.25
2023-03-12T04:23:48.251Z,6.25
2023-03-12T04:24:48.239Z,6.24
2023-03-12T04:25:48.227Z,6.22
2023-03-12T04:26:48.214Z,6.22
2023-03-12T04:27:48.199Z,6.25
2023-03-12T04:28:48.188Z,6.24
2023-03-12T04:29:48.174Z,6.24
2023-03-12T04:30:48.166Z,6.24
2023-03-12T04:31:48.228Z,6.21
2023-03-12T04:32:48.155Z,6.21
2023-03-12T04:33:48.121Z,6.22
2023-03-12T04:34:48.137Z,6.22
2023-03-12T04:35:48.112Z,6.21
2023-03-12T04:36:48.096Z,6.24
2023-03-12T04:37:48.070Z,6.22
2023-03-12T04:38:48.084Z,6.24
2023-03-12T04:39:48.048Z,6.22
2023-03-12T04:40:48.034Z,6.24
2023-03-12T04:41:48.022Z,6.22
2023-03-12T04:42:48.019Z,6.22
2023-03-12T04:43:48.004Z,6.21
2023-03-12T04:44:47.987Z,6.21
2023-03-12T04:45:47.972Z,6.24
2023-03-12T04:46:48.087Z,6.22
2023-03-12T04:47:47.953Z,6.22
2023-03-12T04:48:47.932Z,6.25
2023-03-12T04:49:47.919Z,6.25
2023-03-12T04:50:47.932Z,6.25
2023-03-12T04:51:47.893Z,6.25
2023-03-12T04:52:47.883Z,6.28
2023-03-12T04:53:47.925Z,6.27
2023-03-12T04:54:48.180Z,6.27
2023-03-12T04:55:47.841Z,6.27
2023-03-12T04:56:47.833Z,6.27
2023-03-12T04:57:47.818Z,6.25
2023-03-12T04:58:47.805Z,6.24
2023-03-12T04:59:47.790Z,6.22
2023-03-12T05:00:47.774Z,6.24
2023-03-12T05:01:47.758Z,6.24
2023-03-12T05:02:47.797Z,6.25
2023-03-12T05:03:47.771Z,6.24
2023-03-12T05:04:47.724Z,6.25
2023-03-12T05:05:47.708Z,6.22
2023-03-12T05:06:47.715Z,6.22
2023-03-12T05:07:47.701Z,6.24
2023-03-12T05:08:47.667Z,6.25
2023-03-12T05:09:47.663Z,6.24
2023-03-12T05:10:47.641Z,6.22
2023-03-12T05:11:47.635Z,6.22
2023-03-12T05:12:47.617Z,6.22
2023-03-12T05:13:47.630Z,6.21
2023-03-12T05:14:47.594Z,6.21
2023-03-12T05:15:47.604Z,6.19
2023-03-12T05:16:47.562Z,6.21
2023-03-12T05:17:47.585Z,6.21
2023-03-12T05:18:47.534Z,6.19
2023-03-12T05:19:47.522Z,6.19
2023-03-12T05:20:47.511Z,6.19
2023-03-12T05:21:47.496Z,6.18
2023-03-12T05:22:47.512Z,6.19
2023-03-12T05:23:47.480Z,6.18
2023-03-12T05:24:47.453Z,6.18
2023-03-12T05:25:47.446Z,6.21
2023-03-12T05:26:47.426Z,6.21
2023-03-12T05:27:47.416Z,6.21
2023-03-12T05:28:47.413Z,6.22
2023-03-12T05:29:47.391Z,6.21
2023-03-12T05:30:47.372Z,6.24
2023-03-12T05:31:47.613Z,6.24
2023-03-12T05:32:47.407Z,6.22
2023-03-12T05:33:47.334Z,6.22
2023-03-12T05:34:47.319Z,6.22
2023-03-12T05:35:47.364Z,6.24
2023-03-12T05:36:47.296Z,6.25
2023-03-12T05:37:47.284Z,6.25
2023-03-12T05:38:47.295Z,6.24
2023-03-12T05:39:47.256Z,6.24
2023-03-12T05:40:47.244Z,6.21
2023-03-12T05:41:47.236Z,6.21
2023-03-12T05:42:47.229Z,6.19
2023-03-12T05:43:47.206Z,6.18
2023-03-12T05:44:47.196Z,6.19
2023-03-12T05:45:47.198Z,6.19
2023-03-12T05:46:47.169Z,6.21
2023-03-12T05:47:47.156Z,6.19
2023-03-12T05:48:47.152Z,6.19
2023-03-12T05:49:47.127Z,6.18
2023-03-12T05:50:47.112Z,6.21
2023-03-12T05:51:47.102Z,6.22
2023-03-12T05:52:47.086Z,6.22
2023-03-12T05:53:47.073Z,6.21
2023-03-12T05:54:47.090Z,6.19
2023-03-12T05:55:47.049Z,6.21
2023-03-12T05:56:47.035Z,6.21
2023-03-12T05:57:47.018Z,6.19
2023-03-12T05:58:47.004Z,6.21
2023-03-12T05:59:46.991Z,6.21
2023-03-12T06:00:46.979Z,6.22
2023-03-12T06:01:47.031Z,6.21
2023-03-12T06:02:46.957Z,6.21
2023-03-12T06:03:47.000Z,6.21
2023-03-12T06:04:46.926Z,6.21
2023-03-12T06:05:46.913Z,6.21
2023-03-12T06:06:46.896Z,6.19
2023-03-12T06:07:46.887Z,6.21
2023-03-12T06:08:46.869Z,6.19
2023-03-12T06:09:46.862Z,6.19
2023-03-12T06:10:46.885Z,6.19
2023-03-12T06:11:46.837Z,6.21
2023-03-12T06:12:46.822Z,6.21
2023-03-12T06:13:46.810Z,6.19
2023-03-12T06:14:46.796Z,6.21
2023-03-12T06:15:46.787Z,6.19
2023-03-12T06:16:46.837Z,6.21
2023-03-12T06:17:46.798Z,6.21
2023-03-12T06:18:46.739Z,6.21
2023-03-12T06:19:46.728Z,6.21
2023-03-12T06:20:46.794Z,6.21
2023-03-12T06:21:46.701Z,6.24
2023-03-12T06:22:46.685Z,6.27
2023-03-12T06:23:46.677Z,6.24
2023-03-12T06:24:46.660Z,6.25
2023-03-12T06:25:46.646Z,6.22
2023-03-12T06:26:46.660Z,6.22
2023-03-12T06:27:46.621Z,6.21
2023-03-12T06:28:46.606Z,6.21
2023-03-12T06:29:46.598Z,6.22
2023-03-12T06:30:46.583Z,6.24
2023-03-12T06:31:46.587Z,6.25
2023-03-12T06:32:46.664Z,6.25
2023-03-12T06:33:46.542Z,6.25
2023-03-12T06:34:46.525Z,6.24
2023-03-12T06:35:46.654Z,6.24
2023-03-12T06:36:46.502Z,6.24
2023-03-12T06:37:46.493Z,6.24
2023-03-12T06:38:46.474Z,6.25
2023-03-12T06:39:46.463Z,6.25
2023-03-12T06:40:46.449Z,6.25
2023-03-12T06:41:46.436Z,6.24
2023-03-12T06:42:46.453Z,6.22
2023-03-12T06:43:46.412Z,6.24
2023-03-12T06:44:46.398Z,6.24
2023-03-12T06:45:46.391Z,6.25
2023-03-12T06:46:46.461Z,6.24
2023-03-12T06:47:46.359Z,6.22
2023-03-12T06:48:46.349Z,6.22
2023-03-12T06:49:46.334Z,6.25
2023-03-12T06:50:46.318Z,6.25
2023-03-12T06:51:46.308Z,6.27
2023-03-12T06:52:46.292Z,6.25
2023-03-12T06:53:46.276Z,6.25
2023-03-12T06:54:46.264Z,6.25
2023-03-12T06:55:46.252Z,6.25
2023-03-12T06:56:46.256Z,6.27
2023-03-12T06:57:46.228Z,6.27
2023-03-12T06:58:46.247Z,6.25
2023-03-12T06:59:48.112Z,6.27
2023-03-12T07:00:46.187Z,6.28
2023-03-12T07:01:46.213Z,6.28
2023-03-12T07:02:46.163Z,6.27
2023-03-12T07:03:46.149Z,6.27
2023-03-12T07:04:46.193Z,6.28
2023-03-12T07:05:46.122Z,6.27
2023-03-12T07:06:46.108Z,6.25
2023-03-12T07:07:46.098Z,6.27
2023-03-12T07:08:46.086Z,6.27
2023-03-12T07:09:46.070Z,6.29
2023-03-12T07:10:46.068Z,6.28
2023-03-12T07:11:46.053Z,6.29
2023-03-12T07:12:46.028Z,6.29
2023-03-12T07:13:46.019Z,6.29
2023-03-12T07:14:46.029Z,6.31
2023-03-12T07:15:46.069Z,6.31
2023-03-12T07:16:45.979Z,6.31
2023-03-12T07:17:46.000Z,6.34
2023-03-12T07:18:45.949Z,6.35
2023-03-12T07:19:47.130Z,6.35
2023-03-12T07:20:45.925Z,6.37
2023-03-12T07:21:45.910Z,6.39
2023-03-12T07:22:45.913Z,6.35
2023-03-12T07:23:45.883Z,6.37
2023-03-12T07:24:45.870Z,6.35
2023-03-12T07:25:45.857Z,6.35
2023-03-12T07:26:45.845Z,6.39
2023-03-12T07:27:45.829Z,6.37
2023-03-12T07:28:45.822Z,6.37
2023-03-12T07:29:45.812Z,6.39
2023-03-12T07:30:45.822Z,6.39
2023-03-12T07:31:45.848Z,6.40
2023-03-12T07:32:45.805Z,6.42
2023-03-12T07:33:45.915Z,6.39
2023-03-12T07:34:45.733Z,6.40
2023-03-12T07:35:45.840Z,6.39
2023-03-12T07:36:45.902Z,6.40
2023-03-12T07:37:45.792Z,6.39
2023-03-12T07:38:45.682Z,6.39
2023-03-12T07:39:45.723Z,6.37
2023-03-12T07:40:45.687Z,6.39
2023-03-12T07:41:45.640Z,6.39
2023-03-12T07:42:45.631Z,6.37
2023-03-12T07:43:45.881Z,6.37
2023-03-12T07:44:45.943Z,6.37
2023-03-12T07:45:45.942Z,6.37
2023-03-12T07:46:45.839Z,6.39
2023-03-12T07:47:45.928Z,6.37
2023-03-12T07:48:45.538Z,6.37
2023-03-12T07:49:45.781Z,6.37
2023-03-12T07:50:45.793Z,6.40
2023-03-12T07:51:45.572Z,6.40
2023-03-12T07:52:45.490Z,6.42
2023-03-12T07:53:45.618Z,6.40
2023-03-12T07:54:45.634Z,6.40
2023-03-12T07:55:46.126Z,6.37
2023-03-12T07:56:46.115Z,6.39
2023-03-12T07:57:45.689Z,6.39
2023-03-12T07:58:45.676Z,6.39
2023-03-12T07:59:45.445Z,6.37
2023-03-12T08:00:45.377Z,6.37
2023-03-12T08:01:46.414Z,6.37
2023-03-12T08:02:45.815Z,6.37
2023-03-12T08:03:45.609Z,6.39
2023-03-12T08:04:45.606Z,6.40
2023-03-12T08:05:45.589Z,6.40
2023-03-12T08:06:45.306Z,6.42
2023-03-12T08:07:45.333Z,6.37
2023-03-12T08:08:45.520Z,6.40
2023-03-12T08:09:45.571Z,6.42
2023-03-12T08:10:45.425Z,6.40
2023-03-12T08:11:45.254Z,6.42
2023-03-12T08:12:45.392Z,6.39
2023-03-12T08:13:45.198Z,6.40
2023-03-12T08:14:45.312Z,6.40
2023-03-12T08:15:45.178Z,6.40
2023-03-12T08:16:45.218Z,6.40
2023-03-12T08:17:45.369Z,6.42
2023-03-12T08:18:45.443Z,6.43
2023-03-12T08:19:45.118Z,6.43
2023-03-12T08:20:45.307Z,6.42
2023-03-12T08:21:45.283Z,6.43
2023-03-12T08:22:45.072Z,6.43
2023-03-12T08:23:45.064Z,6.43
2023-03-12T08:24:45.047Z,6.42
2023-03-12T08:25:45.035Z,6.45
2023-03-12T08:26:45.018Z,6.43
2023-03-12T08:27:45.006Z,6.45
2023-03-12T08:28:44.994Z,6.43
2023-03-12T08:29:44.978Z,6.45
2023-03-12T08:30:44.966Z,6.45
2023-03-12T08:32:01.597Z,6.45
2023-03-12T08:32:46.188Z,6.46
2023-03-12T08:33:44.927Z,6.45
2023-03-12T08:34:44.939Z,6.46
2023-03-12T08:35:44.937Z,6.46
2023-03-12T08:36:44.883Z,6.46
2023-03-12T08:37:44.874Z,6.45
2023-03-12T08:38:44.857Z,6.46
2023-03-12T08:39:44.851Z,6.43
2023-03-12T08:40:44.831Z,6.45
2023-03-12T08:41:44.819Z,6.45
2023-03-12T08:42:44.826Z,6.46
2023-03-12T08:43:44.791Z,6.46
2023-03-12T08:44:44.780Z,6.46
2023-03-12T08:45:44.794Z,6.46
2023-03-12T08:46:44.753Z,6.46
2023-03-12T08:47:44.735Z,6.46
2023-03-12T08:48:44.734Z,6.47
2023-03-12T08:49:44.718Z,6.46
2023-03-12T08:50:44.727Z,6.47
2023-03-12T08:51:44.710Z,6.49
2023-03-12T08:52:44.716Z,6.49
2023-03-12T08:53:44.668Z,6.50
2023-03-12T08:54:44.648Z,6.47
2023-03-12T08:55:44.635Z,6.49
2023-03-12T08:56:44.621Z,6.47
2023-03-12T08:57:44.612Z,6.49
2023-03-12T08:58:44.617Z,6.47
2023-03-12T08:59:44.588Z,6.49
2023-03-12T09:00:44.574Z,6.47
2023-03-12T09:01:44.593Z,6.47
2023-03-12T09:02:44.621Z,6.49
2023-03-12T09:03:44.542Z,6.47
2023-03-12T09:04:44.565Z,6.49
2023-03-12T09:05:44.501Z,6.49
2023-03-12T09:06:44.526Z,6.49
2023-03-12T09:07:44.478Z,6.49
2023-03-12T09:08:44.466Z,6.50
2023-03-12T09:09:44.448Z,6.50
2023-03-12T09:10:44.434Z,6.50
2023-03-12T09:11:44.421Z,6.50
2023-03-12T09:12:44.407Z,6.50
2023-03-12T09:14:15.311Z,6.52
2023-03-12T09:15:13.390Z,6.52
2023-03-12T09:15:45.410Z,6.52
2023-03-12T09:16:44.404Z,6.52
2023-03-12T09:17:44.344Z,6.52
2023-03-12T09:18:44.333Z,6.52
2023-03-12T09:19:44.310Z,6.50
2023-03-12T09:20:44.302Z,6.50
2023-03-12T09:21:44.284Z,6.50
2023-03-12T09:22:44.296Z,6.50
2023-03-12T09:23:44.261Z,6.50
2023-03-12T09:24:44.245Z,6.50
2023-03-12T09:25:44.228Z,6.50
2023-03-12T09:26:44.222Z,6.50
2023-03-12T09:27:44.206Z,6.50
2023-03-12T09:28:44.191Z,6.50
2023-03-12T09:29:58.780Z,6.50
2023-03-12T09:30:45.223Z,6.52
2023-03-12T09:31:44.148Z,6.53
2023-03-12T09:32:44.165Z,6.53
2023-03-12T09:33:44.124Z,6.52
2023-03-12T09:34:44.108Z,6.52
2023-03-12T09:35:44.124Z,6.53
2023-03-12T09:36:44.081Z,6.52
2023-03-12T09:37:44.067Z,6.55
2023-03-12T09:38:44.083Z,6.53
2023-03-12T09:39:44.040Z,6.55
2023-03-12T09:40:44.029Z,6.55
2023-03-12T09:41:44.022Z,6.55
2023-03-12T09:42:46.887Z,6.55
2023-03-12T09:43:43.986Z,6.55
2023-03-12T09:44:43.972Z,6.53
2023-03-12T09:45:44.029Z,6.55
2023-03-12T09:46:43.948Z,6.53
2023-03-12T09:47:43.938Z,6.53
2023-03-12T09:48:45.790Z,6.53
2023-03-12T09:49:43.906Z,6.55
2023-03-12T09:50:43.956Z,6.55
2023-03-12T09:51:43.880Z,6.55
2023-03-12T09:52:43.871Z,6.57
2023-03-12T09:53:43.856Z,6.55
2023-03-12T09:54:45.792Z,6.57
2023-03-12T09:55:43.832Z,6.53
2023-03-12T09:56:43.818Z,6.55
2023-03-12T09:57:43.804Z,6.57
2023-03-12T09:58:43.793Z,6.57
2023-03-12T09:59:43.779Z,6.57
2023-03-12T10:00:45.295Z,6.57
2023-03-12T10:01:43.764Z,6.57
2023-03-12T10:02:43.740Z,6.58
2023-03-12T10:03:43.801Z,6.58
2023-03-12T10:04:58.584Z,6.57
2023-03-12T10:05:44.750Z,6.58
2023-03-12T10:06:46.878Z,6.60
2023-03-12T10:07:43.674Z,6.58
2023-03-12T10:08:43.665Z,6.58
2023-03-12T10:09:49.681Z,6.58
2023-03-12T10:10:43.639Z,6.57
2023-03-12T10:11:43.619Z,6.57
2023-03-12T10:12:45.634Z,6.57
2023-03-12T10:13:43.593Z,6.57
2023-03-12T10:14:43.586Z,6.58
2023-03-12T10:15:43.606Z,6.57
2023-03-12T10:16:43.557Z,6.57
2023-03-12T10:17:43.616Z,6.57
2023-03-12T10:18:45.217Z,6.57
2023-03-12T10:19:43.516Z,6.58
2023-03-12T10:20:43.510Z,6.58
2023-03-12T10:21:43.501Z,6.57
2023-03-12T10:22:43.481Z,6.57
2023-03-12T10:23:43.477Z,6.60
2023-03-12T10:24:43.452Z,6.57
2023-03-12T10:25:43.465Z,6.58
2023-03-12T10:26:43.428Z,6.60
2023-03-12T10:27:43.414Z,6.58
2023-03-12T10:28:43.407Z,6.60
2023-03-12T10:29:44.874Z,6.58
2023-03-12T10:30:43.411Z,6.58
2023-03-12T10:31:43.358Z,6.60
2023-03-12T10:32:43.382Z,6.60
2023-03-12T10:33:43.344Z,6.57
2023-03-12T10:34:43.321Z,6.57
2023-03-12T10:35:43.350Z,6.58
2023-03-12T10:36:43.297Z,6.57
2023-03-12T10:37:43.286Z,6.57
2023-03-12T10:38:43.270Z,6.57
2023-03-12T10:39:43.256Z,6.57
2023-03-12T10:40:43.243Z,6.57
2023-03-12T10:41:43.260Z,6.57
2023-03-12T10:42:43.226Z,6.57
2023-03-12T10:43:43.205Z,6.57
2023-03-12T10:44:43.306Z,6.57
2023-03-12T10:45:43.181Z,6.55
2023-03-12T10:46:43.229Z,6.55
2023-03-12T10:47:43.155Z,6.55
2023-03-12T10:48:43.141Z,6.55
2023-03-12T10:49:43.126Z,6.55
2023-03-12T10:50:43.115Z,6.55
2023-03-12T10:51:43.101Z,6.55
2023-03-12T10:52:43.088Z,6.55
2023-03-12T10:53:43.072Z,6.57
2023-03-12T10:54:43.060Z,6.55
2023-03-12T10:55:43.045Z,6.57
2023-03-12T10:56:43.041Z,6.57
2023-03-12T10:57:43.058Z,6.57
2023-03-12T10:58:43.007Z,6.57
2023-03-12T10:59:43.019Z,6.57
2023-03-12T11:00:42.982Z,6.57
2023-03-12T11:01:43.056Z,6.57
2023-03-12T11:02:42.953Z,6.57
2023-03-12T11:03:42.942Z,6.55
2023-03-12T11:04:42.926Z,6.57
2023-03-12T11:05:42.943Z,6.57
2023-03-12T11:06:42.901Z,6.57
2023-03-12T11:07:42.885Z,6.58
2023-03-12T11:08:42.875Z,6.57
2023-03-12T11:09:42.862Z,6.58
2023-03-12T11:10:42.872Z,6.57
2023-03-12T11:11:42.836Z,6.58
2023-03-12T11:12:42.822Z,6.58
2023-03-12T11:13:42.836Z,6.58
2023-03-12T11:14:42.794Z,6.58
2023-03-12T11:15:42.837Z,6.58
2023-03-12T11:16:42.778Z,6.58
2023-03-12T11:17:42.770Z,6.58
2023-03-12T11:18:42.740Z,6.58
2023-03-12T11:19:42.723Z,6.57
2023-03-12T11:20:42.718Z,6.57
2023-03-12T11:21:42.699Z,6.58
2023-03-12T11:22:42.687Z,6.58
2023-03-12T11:23:42.673Z,6.57
2023-03-12T11:24:42.658Z,6.57
2023-03-12T11:25:42.645Z,6.58
2023-03-12T11:26:42.631Z,6.55
2023-03-12T11:27:42.677Z,6.55
2023-03-12T11:28:42.604Z,6.57
2023-03-12T11:29:42.724Z,6.57
2023-03-12T11:30:42.609Z,6.57
2023-03-12T11:31:42.758Z,6.57
2023-03-12T11:32:42.619Z,6.57
2023-03-12T11:33:42.545Z,6.57
2023-03-12T11:34:42.521Z,6.57
2023-03-12T11:35:42.522Z,6.58
2023-03-12T11:36:42.500Z,6.57
2023-03-12T11:37:42.480Z,6.57
2023-03-12T11:38:42.465Z,6.57
2023-03-12T11:39:42.454Z,6.57
2023-03-12T11:40:42.443Z,6.58
2023-03-12T11:41:42.425Z,6.57
2023-03-12T11:42:42.412Z,6.58
2023-03-12T11:43:44.187Z,6.57
2023-03-12T11:44:42.402Z,6.57
2023-03-12T11:45:42.394Z,6.57
2023-03-12T11:46:42.370Z,6.58
2023-03-12T11:47:42.376Z,6.58
2023-03-12T11:48:42.433Z,6.57
2023-03-12T11:49:42.314Z,6.58
2023-03-12T11:50:42.304Z,6.55
2023-03-12T11:51:42.292Z,6.57
2023-03-12T11:52:42.277Z,6.58
2023-03-12T11:53:42.267Z,6.58
2023-03-12T11:54:42.256Z,6.55
2023-03-12T11:55:42.239Z,6.57
2023-03-12T11:56:42.227Z,6.57
2023-03-12T11:57:42.215Z,6.57
2023-03-12T11:58:42.196Z,6.58
2023-03-12T11:59:42.190Z,6.57
2023-03-12T12:00:42.172Z,6.57
2023-03-12T12:01:42.348Z,6.58
2023-03-12T12:02:42.143Z,6.57
2023-03-12T12:03:42.125Z,6.57
2023-03-12T12:04:42.125Z,6.57
2023-03-12T12:05:42.102Z,6.55
2023-03-12T12:06:42.089Z,6.57
2023-03-12T12:07:42.080Z,6.58
2023-03-12T12:08:42.060Z,6.58
2023-03-12T12:09:42.046Z,6.58
2023-03-12T12:10:42.036Z,6.60
2023-03-12T12:11:42.018Z,6.57
2023-03-12T12:12:42.010Z,6.57
2023-03-12T12:13:41.995Z,6.58
2023-03-12T12:14:41.981Z,6.58
2023-03-12T12:15:41.965Z,6.58
2023-03-12T12:16:42.005Z,6.57
2023-03-12T12:17:41.962Z,6.57
2023-03-12T12:18:41.925Z,6.57
2023-03-12T12:19:41.914Z,6.57
2023-03-12T12:20:41.897Z,6.57
2023-03-12T12:21:41.883Z,6.57
2023-03-12T12:22:41.875Z,6.57
2023-03-12T12:23:41.857Z,6.57
2023-03-12T12:24:41.853Z,6.58
2023-03-12T12:25:41.832Z,6.57
2023-03-12T12:26:41.822Z,6.58
2023-03-12T12:27:41.805Z,6.58
2023-03-12T12:28:41.806Z,6.58
2023-03-12T12:29:41.774Z,6.60
2023-03-12T12:30:41.764Z,6.58
2023-03-12T12:31:41.785Z,6.60
2023-03-12T12:32:41.820Z,6.60
2023-03-12T12:33:41.749Z,6.61
2023-03-12T12:34:41.717Z,6.61
2023-03-12T12:35:41.854Z,6.60
2023-03-12T12:36:41.682Z,6.61
2023-03-12T12:37:41.669Z,6.60
2023-03-12T12:38:41.658Z,6.61
2023-03-12T12:39:41.640Z,6.60
2023-03-12T12:40:41.627Z,6.61
2023-03-12T12:41:41.616Z,6.60
2023-03-12T12:42:41.605Z,6.60
2023-03-12T12:43:41.595Z,6.60
2023-03-12T12:44:41.574Z,6.58
2023-03-12T12:45:41.606Z,6.58
2023-03-12T12:46:41.551Z,6.58
2023-03-12T12:47:41.534Z,6.57
2023-03-12T12:48:41.520Z,6.60
2023-03-12T12:49:41.528Z,6.61
2023-03-12T12:50:41.493Z,6.58
2023-03-12T12:51:41.478Z,6.58
2023-03-12T12:52:41.468Z,6.58
2023-03-12T12:53:41.452Z,6.55
2023-03-12T12:54:41.437Z,6.58
2023-03-12T12:55:41.421Z,6.58
2023-03-12T12:56:41.410Z,6.58
2023-03-12T12:57:41.395Z,6.57
2023-03-12T12:58:41.382Z,6.57
2023-03-12T12:59:41.378Z,6.57
2023-03-12T13:00:41.355Z,6.57
2023-03-12T13:01:41.471Z,6.57
2023-03-12T13:02:41.330Z,6.58
2023-03-12T13:03:41.360Z,6.58
2023-03-12T13:04:41.303Z,6.58
2023-03-12T13:05:41.313Z,6.57
2023-03-12T13:06:41.277Z,6.58
2023-03-12T13:07:41.266Z,6.57
2023-03-12T13:08:41.248Z,6.55
2023-03-12T13:09:41.258Z,6.57
2023-03-12T13:10:48.606Z,6.57
2023-03-12T13:11:48.254Z,6.55
2023-03-12T13:12:41.196Z,6.57
2023-03-12T13:13:41.182Z,6.55
2023-03-12T13:14:41.203Z,6.57
2023-03-12T13:15:41.164Z,6.57
2023-03-12T13:16:41.153Z,6.55
2023-03-12T13:17:41.128Z,6.57
2023-03-12T13:18:41.112Z,6.57